sensor_id;sensor_type;location;lat;lon;timestamp;pressure;altitude;pressure_sealevel;temperature;humidity
47811;BME280;33575;52.600;7.318;2022-07-23T00:01:40;101726.40;;;17.45;83.39
47811;BME280;33575;52.600;7.318;2022-07-23T00:04:10;101730.81;;;17.40;83.57
47811;BME280;33575;52.600;7.318;2022-07-23T00:06:40;101728.38;;;17.39;84.17
47811;BME280;33575;52.600;7.318;2022-07-23T00:09:11;101726.25;;;17.38;84.43
47811;BME280;33575;52.600;7.318;2022-07-23T00:11:41;101734.55;;;17.36;84.01
47811;BME280;33575;52.600;7.318;2022-07-23T00:14:11;101726.23;;;17.34;83.92
47811;BME280;33575;52.600;7.318;2022-07-23T00:16:42;101719.88;;;17.34;84.23
47811;BME280;33575;52.600;7.318;2022-07-23T00:19:12;101720.82;;;17.35;84.52
47811;BME280;33575;52.600;7.318;2022-07-23T00:21:42;101715.57;;;17.33;84.52
47811;BME280;33575;52.600;7.318;2022-07-23T00:24:13;101719.83;;;17.32;84.23
47811;BME280;33575;52.600;7.318;2022-07-23T00:26:43;101722.85;;;17.31;84.22
47811;BME280;33575;52.600;7.318;2022-07-23T00:29:13;101721.45;;;17.32;84.23
47811;BME280;33575;52.600;7.318;2022-07-23T00:31:49;101717.27;;;17.34;84.67
47811;BME280;33575;52.600;7.318;2022-07-23T00:34:14;101712.84;;;17.35;84.67
47811;BME280;33575;52.600;7.318;2022-07-23T00:36:44;101718.18;;;17.36;84.26
47811;BME280;33575;52.600;7.318;2022-07-23T00:39:15;101724.31;;;17.36;84.09
47811;BME280;33575;52.600;7.318;2022-07-23T00:41:45;101721.41;;;17.34;84.11
47811;BME280;33575;52.600;7.318;2022-07-23T00:44:17;101713.88;;;17.35;84.07
47811;BME280;33575;52.600;7.318;2022-07-23T00:46:47;101712.70;;;17.36;84.34
47811;BME280;33575;52.600;7.318;2022-07-23T00:49:16;101709.26;;;17.32;84.53
47811;BME280;33575;52.600;7.318;2022-07-23T00:51:48;101705.66;;;17.27;84.73
47811;BME280;33575;52.600;7.318;2022-07-23T00:54:18;101708.10;;;17.23;84.67
47811;BME280;33575;52.600;7.318;2022-07-23T00:56:47;101707.45;;;17.21;84.49
47811;BME280;33575;52.600;7.318;2022-07-23T00:59:18;101710.49;;;17.19;84.74
47811;BME280;33575;52.600;7.318;2022-07-23T01:01:48;101713.86;;;17.16;84.66
47811;BME280;33575;52.600;7.318;2022-07-23T01:04:18;101710.92;;;17.15;84.99
47811;BME280;33575;52.600;7.318;2022-07-23T01:06:49;101706.45;;;17.09;85.10
47811;BME280;33575;52.600;7.318;2022-07-23T01:09:19;101703.16;;;17.05;85.07
47811;BME280;33575;52.600;7.318;2022-07-23T01:11:50;101697.73;;;17.05;84.91
47811;BME280;33575;52.600;7.318;2022-07-23T01:14:20;101692.88;;;17.06;84.92
47811;BME280;33575;52.600;7.318;2022-07-23T01:16:50;101694.57;;;17.05;84.87
47811;BME280;33575;52.600;7.318;2022-07-23T01:19:20;101695.55;;;17.00;84.92
47811;BME280;33575;52.600;7.318;2022-07-23T01:21:51;101694.59;;;16.96;85.18
47811;BME280;33575;52.600;7.318;2022-07-23T01:24:21;101694.41;;;16.91;85.20
47811;BME280;33575;52.600;7.318;2022-07-23T01:26:52;101692.42;;;16.86;85.41
47811;BME280;33575;52.600;7.318;2022-07-23T01:29:22;101690.16;;;16.76;85.81
47811;BME280;33575;52.600;7.318;2022-07-23T01:31:53;101689.07;;;16.67;86.07
47811;BME280;33575;52.600;7.318;2022-07-23T01:34:23;101693.32;;;16.62;86.11
47811;BME280;33575;52.600;7.318;2022-07-23T01:36:53;101689.71;;;16.61;86.11
47811;BME280;33575;52.600;7.318;2022-07-23T01:39:24;101690.10;;;16.61;86.00
47811;BME280;33575;52.600;7.318;2022-07-23T01:41:54;101686.60;;;16.59;86.00
47811;BME280;33575;52.600;7.318;2022-07-23T01:44:24;101683.01;;;16.52;86.21
47811;BME280;33575;52.600;7.318;2022-07-23T01:46:55;101680.97;;;16.47;86.24
47811;BME280;33575;52.600;7.318;2022-07-23T01:49:25;101679.94;;;16.42;86.32
47811;BME280;33575;52.600;7.318;2022-07-23T01:51:55;101681.34;;;16.40;86.39
47811;BME280;33575;52.600;7.318;2022-07-23T01:54:26;101679.91;;;16.37;86.47
47811;BME280;33575;52.600;7.318;2022-07-23T01:56:56;101676.42;;;16.33;86.52
47811;BME280;33575;52.600;7.318;2022-07-23T01:59:27;101676.05;;;16.29;86.52
47811;BME280;33575;52.600;7.318;2022-07-23T02:01:57;101676.03;;;16.28;86.38
47811;BME280;33575;52.600;7.318;2022-07-23T02:04:27;101676.10;;;16.28;86.39
47811;BME280;33575;52.600;7.318;2022-07-23T02:06:58;101669.26;;;16.27;86.38
47811;BME280;33575;52.600;7.318;2022-07-23T02:09:28;101665.46;;;16.27;86.10
47811;BME280;33575;52.600;7.318;2022-07-23T02:11:59;101662.91;;;16.30;85.92
47811;BME280;33575;52.600;7.318;2022-07-23T02:14:29;101658.92;;;16.31;85.61
47811;BME280;33575;52.600;7.318;2022-07-23T02:16:59;101648.84;;;16.30;85.35
47811;BME280;33575;52.600;7.318;2022-07-23T02:19:30;101647.98;;;16.30;85.53
47811;BME280;33575;52.600;7.318;2022-07-23T02:22:00;101649.31;;;16.24;85.60
47811;BME280;33575;52.600;7.318;2022-07-23T02:24:31;101647.05;;;16.22;85.23
47811;BME280;33575;52.600;7.318;2022-07-23T02:27:01;101648.54;;;16.20;85.03
47811;BME280;33575;52.600;7.318;2022-07-23T02:29:31;101646.43;;;16.18;84.95
47811;BME280;33575;52.600;7.318;2022-07-23T02:32:02;101643.55;;;16.18;85.01
47811;BME280;33575;52.600;7.318;2022-07-23T02:34:33;101649.24;;;16.17;84.84
47811;BME280;33575;52.600;7.318;2022-07-23T02:37:03;101651.95;;;16.16;84.88
47811;BME280;33575;52.600;7.318;2022-07-23T02:39:33;101651.25;;;16.15;84.75
47811;BME280;33575;52.600;7.318;2022-07-23T02:42:04;101646.12;;;16.08;84.84
47811;BME280;33575;52.600;7.318;2022-07-23T02:44:34;101648.48;;;16.05;84.77
47811;BME280;33575;52.600;7.318;2022-07-23T02:47:05;101649.04;;;16.02;84.72
47811;BME280;33575;52.600;7.318;2022-07-23T02:49:35;101646.59;;;16.03;84.60
47811;BME280;33575;52.600;7.318;2022-07-23T02:52:05;101646.98;;;16.01;84.69
47811;BME280;33575;52.600;7.318;2022-07-23T02:54:37;101645.35;;;15.99;84.81
47811;BME280;33575;52.600;7.318;2022-07-23T02:57:06;101648.38;;;15.96;84.87
47811;BME280;33575;52.600;7.318;2022-07-23T02:59:36;101651.17;;;15.91;84.96
47811;BME280;33575;52.600;7.318;2022-07-23T03:02:06;101654.68;;;15.87;84.95
47811;BME280;33575;52.600;7.318;2022-07-23T03:04:37;101657.03;;;15.84;85.00
47811;BME280;33575;52.600;7.318;2022-07-23T03:07:07;101655.77;;;15.79;85.07
47811;BME280;33575;52.600;7.318;2022-07-23T03:09:38;101654.97;;;15.73;85.17
47811;BME280;33575;52.600;7.318;2022-07-23T03:12:13;101658.23;;;15.67;85.52
47811;BME280;33575;52.600;7.318;2022-07-23T03:14:39;101663.70;;;15.57;86.12
47811;BME280;33575;52.600;7.318;2022-07-23T03:17:09;101664.59;;;15.53;86.17
47811;BME280;33575;52.600;7.318;2022-07-23T03:19:39;101662.75;;;15.51;86.31
47811;BME280;33575;52.600;7.318;2022-07-23T03:22:10;101667.50;;;15.51;86.13
47811;BME280;33575;52.600;7.318;2022-07-23T03:24:40;101670.80;;;15.53;86.20
47811;BME280;33575;52.600;7.318;2022-07-23T03:27:11;101674.93;;;15.53;86.49
47811;BME280;33575;52.600;7.318;2022-07-23T03:29:41;101678.80;;;15.52;86.53
47811;BME280;33575;52.600;7.318;2022-07-23T03:32:11;101675.83;;;15.49;86.82
47811;BME280;33575;52.600;7.318;2022-07-23T03:34:42;101674.44;;;15.44;87.14
47811;BME280;33575;52.600;7.318;2022-07-23T03:37:13;101676.88;;;15.44;86.92
47811;BME280;33575;52.600;7.318;2022-07-23T03:39:42;101677.70;;;15.42;87.00
47811;BME280;33575;52.600;7.318;2022-07-23T03:42:13;101676.40;;;15.38;87.38
47811;BME280;33575;52.600;7.318;2022-07-23T03:44:43;101680.18;;;15.38;87.22
47811;BME280;33575;52.600;7.318;2022-07-23T03:47:14;101679.15;;;15.40;87.15
47811;BME280;33575;52.600;7.318;2022-07-23T03:49:44;101679.39;;;15.46;87.11
47811;BME280;33575;52.600;7.318;2022-07-23T03:52:14;101678.47;;;15.42;87.49
47811;BME280;33575;52.600;7.318;2022-07-23T03:54:44;101674.63;;;15.37;87.22
47811;BME280;33575;52.600;7.318;2022-07-23T03:57:15;101676.73;;;15.36;86.93
47811;BME280;33575;52.600;7.318;2022-07-23T03:59:45;101681.72;;;15.36;86.80
47811;BME280;33575;52.600;7.318;2022-07-23T04:02:16;101677.60;;;15.39;86.58
47811;BME280;33575;52.600;7.318;2022-07-23T04:04:46;101681.06;;;15.39;86.58
47811;BME280;33575;52.600;7.318;2022-07-23T04:07:16;101685.04;;;15.39;86.96
47811;BME280;33575;52.600;7.318;2022-07-23T04:09:47;101677.44;;;15.34;87.07
47811;BME280;33575;52.600;7.318;2022-07-23T04:12:17;101672.18;;;15.32;86.91
47811;BME280;33575;52.600;7.318;2022-07-23T04:14:48;101666.58;;;15.30;87.04
47811;BME280;33575;52.600;7.318;2022-07-23T04:17:18;101667.63;;;15.31;86.75
47811;BME280;33575;52.600;7.318;2022-07-23T04:19:48;101673.90;;;15.33;86.63
47811;BME280;33575;52.600;7.318;2022-07-23T04:22:19;101677.77;;;15.34;86.52
47811;BME280;33575;52.600;7.318;2022-07-23T04:24:50;101673.89;;;15.33;87.09
47811;BME280;33575;52.600;7.318;2022-07-23T04:27:20;101666.37;;;15.34;86.93
47811;BME280;33575;52.600;7.318;2022-07-23T04:29:50;101662.47;;;15.35;86.63
47811;BME280;33575;52.600;7.318;2022-07-23T04:32:21;101666.20;;;15.36;86.90
47811;BME280;33575;52.600;7.318;2022-07-23T04:34:51;101668.52;;;15.36;86.73
47811;BME280;33575;52.600;7.318;2022-07-23T04:37:21;101673.73;;;15.35;87.11
47811;BME280;33575;52.600;7.318;2022-07-23T04:39:51;101670.59;;;15.32;87.08
47811;BME280;33575;52.600;7.318;2022-07-23T04:42:22;101672.16;;;15.36;87.06
47811;BME280;33575;52.600;7.318;2022-07-23T04:44:52;101671.72;;;15.39;86.81
47811;BME280;33575;52.600;7.318;2022-07-23T04:47:23;101678.79;;;15.39;86.79
47811;BME280;33575;52.600;7.318;2022-07-23T04:49:53;101679.02;;;15.36;86.93
47811;BME280;33575;52.600;7.318;2022-07-23T04:52:23;101682.83;;;15.32;87.34
47811;BME280;33575;52.600;7.318;2022-07-23T04:54:54;101685.10;;;15.31;87.28
47811;BME280;33575;52.600;7.318;2022-07-23T04:57:24;101684.06;;;15.33;87.44
47811;BME280;33575;52.600;7.318;2022-07-23T04:59:54;101683.62;;;15.36;87.35
47811;BME280;33575;52.600;7.318;2022-07-23T05:02:25;101678.39;;;15.37;87.52
47811;BME280;33575;52.600;7.318;2022-07-23T05:04:55;101677.80;;;15.39;87.26
47811;BME280;33575;52.600;7.318;2022-07-23T05:07:26;101678.79;;;15.35;87.58
47811;BME280;33575;52.600;7.318;2022-07-23T05:09:56;101681.76;;;15.38;87.48
47811;BME280;33575;52.600;7.318;2022-07-23T05:12:27;101686.49;;;15.41;87.63
47811;BME280;33575;52.600;7.318;2022-07-23T05:14:57;101695.17;;;15.44;87.92
47811;BME280;33575;52.600;7.318;2022-07-23T05:17:28;101691.98;;;15.47;87.98
47811;BME280;33575;52.600;7.318;2022-07-23T05:20:02;101692.89;;;15.49;88.11
47811;BME280;33575;52.600;7.318;2022-07-23T05:22:28;101696.79;;;15.53;87.86
47811;BME280;33575;52.600;7.318;2022-07-23T05:24:59;101698.17;;;15.57;87.96
47811;BME280;33575;52.600;7.318;2022-07-23T05:27:29;101694.39;;;15.60;88.36
47811;BME280;33575;52.600;7.318;2022-07-23T05:30:00;101698.39;;;15.64;88.38
47811;BME280;33575;52.600;7.318;2022-07-23T05:32:31;101697.94;;;15.61;88.76
47811;BME280;33575;52.600;7.318;2022-07-23T05:35:00;101696.84;;;15.58;88.94
47811;BME280;33575;52.600;7.318;2022-07-23T05:37:31;101697.18;;;15.64;88.97
47811;BME280;33575;52.600;7.318;2022-07-23T05:40:02;101696.27;;;15.74;88.45
47811;BME280;33575;52.600;7.318;2022-07-23T05:42:32;101699.22;;;15.78;89.52
47811;BME280;33575;52.600;7.318;2022-07-23T05:45:03;101707.44;;;15.62;89.79
47811;BME280;33575;52.600;7.318;2022-07-23T05:47:41;101716.04;;;15.59;90.79
47811;BME280;33575;52.600;7.318;2022-07-23T05:50:05;101719.02;;;15.58;90.74
47811;BME280;33575;52.600;7.318;2022-07-23T05:52:33;101719.82;;;15.66;90.42
47811;BME280;33575;52.600;7.318;2022-07-23T05:55:04;101721.78;;;15.57;90.32
47811;BME280;33575;52.600;7.318;2022-07-23T05:57:34;101717.49;;;15.47;90.96
47811;BME280;33575;52.600;7.318;2022-07-23T06:00:07;101715.30;;;15.43;91.26
47811;BME280;33575;52.600;7.318;2022-07-23T06:02:35;101719.99;;;15.43;92.15
47811;BME280;33575;52.600;7.318;2022-07-23T06:05:06;101726.27;;;15.41;92.10
47811;BME280;33575;52.600;7.318;2022-07-23T06:07:36;101734.21;;;15.52;91.93
47811;BME280;33575;52.600;7.318;2022-07-23T06:10:07;101737.01;;;15.62;91.57
47811;BME280;33575;52.600;7.318;2022-07-23T06:12:36;101736.97;;;15.66;91.83
47811;BME280;33575;52.600;7.318;2022-07-23T06:15:11;101734.78;;;15.74;91.41
47811;BME280;33575;52.600;7.318;2022-07-23T06:17:37;101734.41;;;15.86;90.76
47811;BME280;33575;52.600;7.318;2022-07-23T06:20:09;101734.66;;;15.90;90.68
47811;BME280;33575;52.600;7.318;2022-07-23T06:22:38;101740.12;;;15.99;90.46
47811;BME280;33575;52.600;7.318;2022-07-23T06:25:13;101740.17;;;16.09;89.98
47811;BME280;33575;52.600;7.318;2022-07-23T06:27:38;101742.32;;;16.03;89.49
47811;BME280;33575;52.600;7.318;2022-07-23T06:30:10;101742.26;;;16.00;90.00
47811;BME280;33575;52.600;7.318;2022-07-23T06:32:39;101741.85;;;16.07;89.76
47811;BME280;33575;52.600;7.318;2022-07-23T06:35:10;101741.18;;;16.22;88.96
47811;BME280;33575;52.600;7.318;2022-07-23T06:37:40;101745.33;;;16.27;88.81
47811;BME280;33575;52.600;7.318;2022-07-23T06:40:11;101752.54;;;16.34;88.62
47811;BME280;33575;52.600;7.318;2022-07-23T06:42:41;101755.57;;;16.40;88.43
47811;BME280;33575;52.600;7.318;2022-07-23T06:45:11;101759.52;;;16.34;87.16
47811;BME280;33575;52.600;7.318;2022-07-23T06:47:42;101758.30;;;16.33;87.27
47811;BME280;33575;52.600;7.318;2022-07-23T06:50:12;101758.38;;;16.33;86.75
47811;BME280;33575;52.600;7.318;2022-07-23T06:52:44;101756.83;;;16.40;86.82
47811;BME280;33575;52.600;7.318;2022-07-23T06:55:13;101757.86;;;16.48;87.02
47811;BME280;33575;52.600;7.318;2022-07-23T06:57:43;101762.25;;;16.43;87.37
47811;BME280;33575;52.600;7.318;2022-07-23T07:00:14;101764.96;;;16.57;87.51
47811;BME280;33575;52.600;7.318;2022-07-23T07:02:44;101762.30;;;16.62;85.22
47811;BME280;33575;52.600;7.318;2022-07-23T07:05:14;101764.91;;;16.74;85.62
47811;BME280;33575;52.600;7.318;2022-07-23T07:07:45;101766.02;;;16.69;84.78
47811;BME280;33575;52.600;7.318;2022-07-23T07:10:17;101764.96;;;16.77;85.12
47811;BME280;33575;52.600;7.318;2022-07-23T07:12:45;101771.03;;;16.80;84.99
47811;BME280;33575;52.600;7.318;2022-07-23T07:15:16;101766.80;;;16.76;84.86
47811;BME280;33575;52.600;7.318;2022-07-23T07:17:46;101770.09;;;16.78;83.01
47811;BME280;33575;52.600;7.318;2022-07-23T07:20:17;101767.83;;;16.74;82.82
47811;BME280;33575;52.600;7.318;2022-07-23T07:22:47;101768.11;;;16.66;82.58
47811;BME280;33575;52.600;7.318;2022-07-23T07:25:18;101769.26;;;16.80;82.68
47811;BME280;33575;52.600;7.318;2022-07-23T07:27:48;101771.00;;;16.67;81.87
47811;BME280;33575;52.600;7.318;2022-07-23T07:30:18;101769.12;;;16.84;83.10
47811;BME280;33575;52.600;7.318;2022-07-23T07:32:53;101768.65;;;16.64;82.98
47811;BME280;33575;52.600;7.318;2022-07-23T07:35:19;101765.80;;;16.80;81.98
47811;BME280;33575;52.600;7.318;2022-07-23T07:37:49;101769.03;;;16.80;82.43
47811;BME280;33575;52.600;7.318;2022-07-23T07:40:20;101770.17;;;16.94;83.52
47811;BME280;33575;52.600;7.318;2022-07-23T07:42:51;101774.06;;;17.04;82.59
47811;BME280;33575;52.600;7.318;2022-07-23T07:45:21;101777.23;;;17.24;82.50
47811;BME280;33575;52.600;7.318;2022-07-23T07:47:50;101779.83;;;17.31;82.13
47811;BME280;33575;52.600;7.318;2022-07-23T07:50:21;101776.37;;;17.33;80.94
47811;BME280;33575;52.600;7.318;2022-07-23T07:52:51;101778.57;;;17.39;80.08
47811;BME280;33575;52.600;7.318;2022-07-23T07:55:22;101782.96;;;17.40;79.46
47811;BME280;33575;52.600;7.318;2022-07-23T07:57:52;101785.11;;;17.46;80.99
47811;BME280;33575;52.600;7.318;2022-07-23T08:00:22;101788.21;;;17.47;81.62
47811;BME280;33575;52.600;7.318;2022-07-23T08:02:55;101789.86;;;17.55;81.79
47811;BME280;33575;52.600;7.318;2022-07-23T08:05:30;101791.69;;;17.57;80.60
47811;BME280;33575;52.600;7.318;2022-07-23T08:07:53;101786.64;;;17.49;81.03
47811;BME280;33575;52.600;7.318;2022-07-23T08:10:24;101789.55;;;17.63;80.76
47811;BME280;33575;52.600;7.318;2022-07-23T08:12:56;101787.91;;;17.60;79.59
47811;BME280;33575;52.600;7.318;2022-07-23T08:15:26;101790.84;;;17.67;78.43
47811;BME280;33575;52.600;7.318;2022-07-23T08:17:55;101790.57;;;17.70;77.32
47811;BME280;33575;52.600;7.318;2022-07-23T08:20:25;101793.03;;;17.78;76.75
47811;BME280;33575;52.600;7.318;2022-07-23T08:22:57;101794.04;;;17.80;76.93
47811;BME280;33575;52.600;7.318;2022-07-23T08:25:27;101797.36;;;17.85;76.04
47811;BME280;33575;52.600;7.318;2022-07-23T08:27:56;101792.98;;;17.88;76.76
47811;BME280;33575;52.600;7.318;2022-07-23T08:30:27;101799.57;;;17.81;77.96
47811;BME280;33575;52.600;7.318;2022-07-23T08:32:58;101802.47;;;17.90;77.73
47811;BME280;33575;52.600;7.318;2022-07-23T08:35:28;101808.41;;;17.85;77.64
47811;BME280;33575;52.600;7.318;2022-07-23T08:37:59;101814.56;;;17.88;78.18
47811;BME280;33575;52.600;7.318;2022-07-23T08:40:29;101810.26;;;17.87;77.24
47811;BME280;33575;52.600;7.318;2022-07-23T08:42:58;101802.89;;;17.99;77.65
47811;BME280;33575;52.600;7.318;2022-07-23T08:45:28;101795.85;;;18.12;76.89
47811;BME280;33575;52.600;7.318;2022-07-23T08:47:58;101789.48;;;18.18;76.33
47811;BME280;33575;52.600;7.318;2022-07-23T08:50:29;101793.10;;;18.21;76.33
47811;BME280;33575;52.600;7.318;2022-07-23T08:52:59;101797.42;;;18.32;74.50
47811;BME280;33575;52.600;7.318;2022-07-23T08:55:29;101802.41;;;18.16;73.82
47811;BME280;33575;52.600;7.318;2022-07-23T08:57:59;101805.67;;;18.18;74.54
47811;BME280;33575;52.600;7.318;2022-07-23T09:00:30;101802.56;;;18.39;73.43
47811;BME280;33575;52.600;7.318;2022-07-23T09:03:00;101809.28;;;18.52;74.01
47811;BME280;33575;52.600;7.318;2022-07-23T09:05:30;101806.59;;;18.60;74.10
47811;BME280;33575;52.600;7.318;2022-07-23T09:08:07;101807.20;;;18.57;75.09
47811;BME280;33575;52.600;7.318;2022-07-23T09:13:01;101813.69;;;18.55;74.99
47811;BME280;33575;52.600;7.318;2022-07-23T09:15:32;101810.47;;;18.57;74.70
47811;BME280;33575;52.600;7.318;2022-07-23T09:18:02;101810.69;;;18.68;74.24
47811;BME280;33575;52.600;7.318;2022-07-23T09:20:32;101809.58;;;18.74;72.95
47811;BME280;33575;52.600;7.318;2022-07-23T09:23:07;101809.08;;;18.73;72.17
47811;BME280;33575;52.600;7.318;2022-07-23T09:25:33;101806.15;;;18.91;72.80
47811;BME280;33575;52.600;7.318;2022-07-23T09:28:03;101805.74;;;18.90;72.15
47811;BME280;33575;52.600;7.318;2022-07-23T09:30:33;101802.27;;;19.00;73.27
47811;BME280;33575;52.600;7.318;2022-07-23T09:33:05;101800.68;;;19.02;71.40
47811;BME280;33575;52.600;7.318;2022-07-23T09:38:04;101803.47;;;19.06;70.23
47811;BME280;33575;52.600;7.318;2022-07-23T09:40:34;101799.99;;;19.07;70.52
47811;BME280;33575;52.600;7.318;2022-07-23T09:43:05;101806.30;;;19.10;71.05
47811;BME280;33575;52.600;7.318;2022-07-23T09:45:35;101806.60;;;19.21;71.65
47811;BME280;33575;52.600;7.318;2022-07-23T09:48:11;101802.77;;;19.32;70.60
47811;BME280;33575;52.600;7.318;2022-07-23T09:50:36;101802.51;;;19.47;70.78
47811;BME280;33575;52.600;7.318;2022-07-23T09:53:06;101807.13;;;19.48;69.34
47811;BME280;33575;52.600;7.318;2022-07-23T09:55:37;101810.28;;;19.54;70.86
47811;BME280;33575;52.600;7.318;2022-07-23T09:58:07;101808.27;;;19.42;69.27
47811;BME280;33575;52.600;7.318;2022-07-23T10:00:37;101806.66;;;19.40;69.84
47811;BME280;33575;52.600;7.318;2022-07-23T10:03:08;101800.93;;;19.41;69.71
47811;BME280;33575;52.600;7.318;2022-07-23T10:05:38;101803.63;;;19.36;67.90
47811;BME280;33575;52.600;7.318;2022-07-23T10:08:11;101800.83;;;19.49;70.05
47811;BME280;33575;52.600;7.318;2022-07-23T10:10:39;101798.92;;;19.65;69.15
47811;BME280;33575;52.600;7.318;2022-07-23T10:13:09;101802.19;;;19.79;68.74
47811;BME280;33575;52.600;7.318;2022-07-23T10:15:40;101800.17;;;19.92;68.99
47811;BME280;33575;52.600;7.318;2022-07-23T10:18:11;101798.97;;;20.00;70.38
47811;BME280;33575;52.600;7.318;2022-07-23T10:20:40;101803.86;;;20.13;69.16
47811;BME280;33575;52.600;7.318;2022-07-23T10:23:14;101800.37;;;20.15;65.91
47811;BME280;33575;52.600;7.318;2022-07-23T10:25:44;101801.01;;;20.19;70.47
47811;BME280;33575;52.600;7.318;2022-07-23T10:28:20;101794.03;;;20.26;66.26
47811;BME280;33575;52.600;7.318;2022-07-23T10:30:47;101800.90;;;20.11;67.22
47811;BME280;33575;52.600;7.318;2022-07-23T10:33:21;101798.61;;;20.24;67.50
47811;BME280;33575;52.600;7.318;2022-07-23T10:35:47;101795.58;;;20.24;68.64
47811;BME280;33575;52.600;7.318;2022-07-23T10:38:16;101797.25;;;20.30;68.27
47811;BME280;33575;52.600;7.318;2022-07-23T10:40:55;101797.63;;;20.37;69.49
47811;BME280;33575;52.600;7.318;2022-07-23T10:43:15;101801.97;;;20.61;69.01
47811;BME280;33575;52.600;7.318;2022-07-23T10:45:42;101799.55;;;20.69;67.57
47811;BME280;33575;52.600;7.318;2022-07-23T10:48:15;101794.69;;;20.69;64.90
47811;BME280;33575;52.600;7.318;2022-07-23T10:50:45;101799.22;;;20.61;66.23
47811;BME280;33575;52.600;7.318;2022-07-23T10:53:16;101801.28;;;20.45;66.82
47811;BME280;33575;52.600;7.318;2022-07-23T10:55:46;101794.82;;;20.48;65.44
47811;BME280;33575;52.600;7.318;2022-07-23T10:58:19;101795.80;;;20.77;66.60
47811;BME280;33575;52.600;7.318;2022-07-23T11:00:44;101790.66;;;20.95;67.12
47811;BME280;33575;52.600;7.318;2022-07-23T11:05:45;101796.65;;;20.95;64.14
47811;BME280;33575;52.600;7.318;2022-07-23T11:08:17;101796.47;;;20.94;64.99
47811;BME280;33575;52.600;7.318;2022-07-23T11:10:47;101794.84;;;20.91;64.34
47811;BME280;33575;52.600;7.318;2022-07-23T11:18:15;101796.35;;;21.27;63.19
47811;BME280;33575;52.600;7.318;2022-07-23T11:20:46;101791.02;;;21.38;65.86
47811;BME280;33575;52.600;7.318;2022-07-23T11:23:16;101795.41;;;21.40;65.74
47811;BME280;33575;52.600;7.318;2022-07-23T11:25:46;101798.06;;;21.32;65.32
47811;BME280;33575;52.600;7.318;2022-07-23T11:28:17;101794.97;;;21.50;65.72
47811;BME280;33575;52.600;7.318;2022-07-23T11:30:47;101791.77;;;21.63;66.17
47811;BME280;33575;52.600;7.318;2022-07-23T11:33:19;101793.41;;;21.64;65.29
47811;BME280;33575;52.600;7.318;2022-07-23T11:38:19;101799.62;;;21.25;64.55
47811;BME280;33575;52.600;7.318;2022-07-23T11:40:50;101795.17;;;21.36;64.81
47811;BME280;33575;52.600;7.318;2022-07-23T11:43:18;101797.61;;;21.51;64.84
47811;BME280;33575;52.600;7.318;2022-07-23T11:45:50;101798.63;;;21.60;64.76
47811;BME280;33575;52.600;7.318;2022-07-23T11:48:21;101798.19;;;21.59;64.20
47811;BME280;33575;52.600;7.318;2022-07-23T11:50:49;101798.92;;;21.72;66.49
47811;BME280;33575;52.600;7.318;2022-07-23T11:53:23;101794.46;;;21.71;64.42
47811;BME280;33575;52.600;7.318;2022-07-23T11:55:49;101795.66;;;21.72;64.54
47811;BME280;33575;52.600;7.318;2022-07-23T11:58:21;101798.75;;;21.71;63.32
47811;BME280;33575;52.600;7.318;2022-07-23T12:00:49;101800.89;;;21.49;64.87
47811;BME280;33575;52.600;7.318;2022-07-23T12:03:20;101807.03;;;21.33;65.53
47811;BME280;33575;52.600;7.318;2022-07-23T12:05:56;101804.25;;;21.49;65.47
47811;BME280;33575;52.600;7.318;2022-07-23T12:08:20;101797.13;;;21.28;64.53
47811;BME280;33575;52.600;7.318;2022-07-23T12:10:50;101809.89;;;21.29;65.53
47811;BME280;33575;52.600;7.318;2022-07-23T12:13:21;101803.18;;;21.25;67.13
47811;BME280;33575;52.600;7.318;2022-07-23T12:15:52;101804.52;;;21.11;66.30
47811;BME280;33575;52.600;7.318;2022-07-23T12:18:22;101802.96;;;21.15;67.93
47811;BME280;33575;52.600;7.318;2022-07-23T12:20:53;101802.32;;;21.17;65.96
47811;BME280;33575;52.600;7.318;2022-07-23T12:23:24;101802.33;;;21.14;65.06
47811;BME280;33575;52.600;7.318;2022-07-23T12:25:52;101802.19;;;21.02;65.68
47811;BME280;33575;52.600;7.318;2022-07-23T12:28:27;101803.98;;;21.17;67.64
47811;BME280;33575;52.600;7.318;2022-07-23T12:30:53;101800.07;;;21.30;66.35
47811;BME280;33575;52.600;7.318;2022-07-23T12:33:24;101796.52;;;21.45;67.49
47811;BME280;33575;52.600;7.318;2022-07-23T12:35:54;101799.13;;;21.39;65.81
47811;BME280;33575;52.600;7.318;2022-07-23T12:38:24;101797.94;;;21.54;65.02
47811;BME280;33575;52.600;7.318;2022-07-23T12:40:54;101797.26;;;21.73;65.79
47811;BME280;33575;52.600;7.318;2022-07-23T12:43:24;101798.92;;;21.93;65.38
47811;BME280;33575;52.600;7.318;2022-07-23T12:45:54;101798.81;;;22.03;64.10
47811;BME280;33575;52.600;7.318;2022-07-23T12:48:26;101797.35;;;22.12;63.67
47811;BME280;33575;52.600;7.318;2022-07-23T12:50:56;101795.96;;;21.92;62.95
47811;BME280;33575;52.600;7.318;2022-07-23T12:53:27;101799.45;;;22.04;63.90
47811;BME280;33575;52.600;7.318;2022-07-23T12:56:03;101798.92;;;22.12;64.37
47811;BME280;33575;52.600;7.318;2022-07-23T13:01:01;101800.59;;;22.38;63.37
47811;BME280;33575;52.600;7.318;2022-07-23T13:03:28;101800.86;;;22.50;64.19
47811;BME280;33575;52.600;7.318;2022-07-23T13:05:55;101799.14;;;22.55;62.79
47811;BME280;33575;52.600;7.318;2022-07-23T13:08:27;101804.80;;;22.53;62.98
47811;BME280;33575;52.600;7.318;2022-07-23T13:10:57;101805.99;;;22.59;63.35
47811;BME280;33575;52.600;7.318;2022-07-23T13:13:32;101805.81;;;22.75;63.15
47811;BME280;33575;52.600;7.318;2022-07-23T13:15:57;101805.36;;;22.57;61.78
47811;BME280;33575;52.600;7.318;2022-07-23T13:18:27;101808.47;;;22.77;63.81
47811;BME280;33575;52.600;7.318;2022-07-23T13:20:57;101805.57;;;22.89;62.74
47811;BME280;33575;52.600;7.318;2022-07-23T13:23:26;101801.45;;;23.04;62.80